BIKL weather

Kirkjubæjarklaustur Airport
Kirkjubæjarklaustur, Southern Region, Iceland

Public forecast

Using degrees Celsius for public forecast. Weather courtesy of forecast.io.

Closest aviation weather report (METAR) to Kirkjubæjarklaustur Airport

Closest report is Vestmannaeyjar Airport, 64.6 nm (119.7 km) WSW. Retrieved 2019/10/15 09:00 UTC (59 minutes ago):

BIVM 150900Z 10035G45KT 9999 VCSH BKN014 BKN020 09/09 Q0988

Closest aviation forecast (TAF) to Kirkjubæjarklaustur Airport

Closest forecast is Reykjavik Airport, 105.8 nm (195.9 km) WNW. Retrieved 2019/10/15 09:48 UTC (11 minutes ago):

TAF BIRK 150741Z 1509/1609 09017KT 9999 -RA BKN023 OVC030 TX11/1512Z TN08/1603Z BECMG 1512/1514 10022G32KT BECMG 1601/1603 09017KT